Time;durP1;ratioP1;P1;durP2;ratioP2;P2;SDS_P1;SDS_P2;PMS_P1;PMS_P2;Temp;Humidity;BMP_temperature;BMP_pressure;BME280_temperature;BME280_humidity;BME280_pressure;Samples;Min_cycle;Max_cycle;Signal;HPM_P1;HPM_P2
2022/05/19 00:00:01;;;;;;;1.98;1.63;;;16.30;99.90;;;;;;4997973;28;20053;-71
2022/05/19 00:02:26;;;;;;;0.90;0.73;;;16.20;99.90;;;;;;5015639;28;20038;-73
2022/05/19 00:04:52;;;;;;;0.70;0.70;;;16.10;99.90;;;;;;5015337;28;20060;-72
2022/05/19 00:07:21;;;;;;;0.47;0.47;;;16.00;99.90;;;;;;4997980;28;20057;-72
2022/05/19 00:09:46;;;;;;;1.60;0.88;;;16.00;99.90;;;;;;5015207;28;20042;-72
2022/05/19 00:12:19;;;;;;;0.93;0.80;;;15.90;99.90;;;;;;4997530;28;20418;-73
2022/05/19 00:14:44;;;;;;;1.92;0.80;;;15.90;99.90;;;;;;5014997;28;20385;-72
2022/05/19 00:17:10;;;;;;;4.03;1.45;;;15.90;99.90;;;;;;5015028;28;20121;-73
2022/05/19 00:19:36;;;;;;;1.25;1.15;;;15.90;99.90;;;;;;5014721;28;20470;-73
2022/05/19 00:22:02;;;;;;;1.35;1.25;;;15.90;99.90;;;;;;4997986;28;20050;-72
2022/05/19 00:24:28;;;;;;;1.25;0.70;;;15.90;99.90;;;;;;5015024;28;20446;-73
2022/05/19 00:26:54;;;;;;;1.00;0.75;;;16.00;99.90;;;;;;5014473;28;20061;-73
2022/05/19 00:29:19;;;;;;;1.15;0.70;;;16.10;99.90;;;;;;5014850;28;20045;-73
2022/05/19 00:31:45;;;;;;;0.80;0.80;;;16.10;99.90;;;;;;5014960;28;20081;-74
2022/05/19 00:34:11;;;;;;;0.65;0.50;;;16.20;99.90;;;;;;5014828;28;20046;-73
2022/05/19 00:36:36;;;;;;;0.70;0.70;;;16.20;99.90;;;;;;5015187;28;20402;-73
2022/05/19 00:39:03;;;;;;;2.08;1.75;;;16.20;99.90;;;;;;4997318;28;20108;-75
2022/05/19 00:41:28;;;;;;;8.52;1.40;;;16.30;99.90;;;;;;5014582;28;20037;-71
2022/05/19 00:44:04;;;;;;;0.77;0.77;;;16.30;99.90;;;;;;5014707;28;20065;-71
2022/05/19 00:46:44;;;;;;;1.50;0.70;;;16.20;99.90;;;;;;5018545;28;20377;-72
2022/05/19 00:49:29;;;;;;;0.57;0.57;;;16.10;99.90;;;;;;5014762;28;20050;-74
2022/05/19 00:52:00;;;;;;;2.53;1.48;;;16.00;99.90;;;;;;5015892;28;20060;-71
2022/05/19 00:54:56;;;;;;;0.75;0.75;;;16.00;99.90;;;;;;5019106;28;20049;-73
2022/05/19 00:57:25;;;;;;;0.80;0.73;;;15.90;99.90;;;;;;5012076;28;20058;-71
2022/05/19 01:00:04;;;;;;;0.77;0.68;;;15.90;99.90;;;;;;5018798;28;20046;-73
2022/05/19 01:02:34;;;;;;;2.40;0.88;;;15.80;99.90;;;;;;5018577;28;20045;-72
2022/05/19 01:05:04;;;;;;;0.90;0.77;;;15.80;99.90;;;;;;5018286;28;20045;-73
2022/05/19 01:07:36;;;;;;;1.13;1.02;;;15.80;99.90;;;;;;5018827;28;20085;-73
2022/05/19 01:10:03;;;;;;;1.58;0.90;;;15.70;99.90;;;;;;5018344;28;20049;-73
2022/05/19 01:12:29;;;;;;;1.55;0.60;;;15.60;99.90;;;;;;5018173;28;20128;-73
2022/05/19 01:14:55;;;;;;;1.30;1.05;;;15.70;99.90;;;;;;5000986;28;20207;-71
2022/05/19 01:17:21;;;;;;;1.35;1.08;;;15.70;99.90;;;;;;5017999;28;20080;-74
2022/05/19 01:20:00;;;;;;;1.40;1.05;;;15.70;99.90;;;;;;5017954;28;20041;-74
2022/05/19 01:22:50;;;;;;;2.78;1.40;;;15.60;99.90;;;;;;5018435;28;20116;-72
2022/05/19 01:25:22;;;;;;;2.20;1.70;;;15.70;99.90;;;;;;5018499;28;20127;-73
2022/05/19 01:27:48;;;;;;;3.40;1.60;;;15.60;99.90;;;;;;4984719;28;20125;-73
2022/05/19 01:30:14;;;;;;;1.40;1.30;;;15.60;99.90;;;;;;5018095;28;20074;-74
2022/05/19 01:32:39;;;;;;;4.95;1.40;;;15.60;99.90;;;;;;5017652;28;20422;-73
2022/05/19 01:35:06;;;;;;;1.02;0.85;;;15.60;99.90;;;;;;5017784;28;20046;-72
2022/05/19 01:37:31;;;;;;;2.90;1.02;;;15.70;99.90;;;;;;5000647;28;20382;-72
2022/05/19 01:40:06;;;;;;;1.52;1.17;;;15.70;99.90;;;;;;5017406;28;20057;-73
2022/05/19 01:43:03;;;;;;;1.95;1.00;;;15.70;99.90;;;;;;4984728;28;20045;-72
2022/05/19 01:45:46;;;;;;;1.05;0.93;;;15.60;99.90;;;;;;4997776;28;20506;-73
2022/05/19 01:48:17;;;;;;;1.38;1.23;;;15.60;99.90;;;;;;5010474;28;20403;-72
2022/05/19 01:51:08;;;;;;;6.35;1.25;;;15.50;99.90;;;;;;5000090;28;20046;-72
2022/05/19 01:54:04;;;;;;;4.18;1.05;;;15.50;99.90;;;;;;5017574;28;20061;-73
2022/05/19 01:56:48;;;;;;;3.25;2.20;;;15.50;99.90;;;;;;5017342;28;20042;-72
2022/05/19 01:59:28;;;;;;;2.17;1.85;;;15.50;99.90;;;;;;5017989;28;20406;-71
2022/05/19 02:02:09;;;;;;;2.92;1.30;;;15.50;99.90;;;;;;5017264;28;20101;-74
2022/05/19 02:04:57;;;;;;;2.05;1.55;;;15.50;99.90;;;;;;5010486;28;20041;-74
2022/05/19 02:07:23;;;;;;;1.25;1.02;;;15.40;99.90;;;;;;5016976;28;20470;-74
2022/05/19 02:09:55;;;;;;;0.73;0.68;;;15.40;99.90;;;;;;5017564;28;20084;-72
2022/05/19 02:12:21;;;;;;;19.33;2.30;;;15.40;99.90;;;;;;5000482;28;20430;-73
2022/05/19 02:14:53;;;;;;;2.28;1.95;;;15.40;99.90;;;;;;5016779;28;20509;-72
2022/05/19 02:17:23;;;;;;;2.47;1.85;;;15.40;99.90;;;;;;5016980;28;20053;-73
2022/05/19 02:19:53;;;;;;;3.58;1.65;;;15.40;99.90;;;;;;5017074;28;20052;-73
2022/05/19 02:22:22;;;;;;;3.28;1.98;;;15.40;99.90;;;;;;5014589;28;20061;-73
2022/05/19 02:24:56;;;;;;;2.15;1.58;;;15.40;99.90;;;;;;5017052;28;20069;-74
2022/05/19 02:27:32;;;;;;;;;;;15.40;99.90;;;;;;5017468;28;20486;-74
2022/05/19 02:30:00;;;;;;;2.83;1.75;;;15.40;99.90;;;;;;5016777;28;20020;-74
2022/05/19 02:32:25;;;;;;;2.03;1.58;;;15.40;99.90;;;;;;5016885;28;20042;-73
2022/05/19 02:34:51;;;;;;;3.90;1.88;;;15.30;99.90;;;;;;5017172;28;20049;-73
2022/05/19 02:37:17;;;;;;;2.30;1.58;;;15.30;99.90;;;;;;5016687;28;20147;-71
2022/05/19 02:39:42;;;;;;;7.13;1.65;;;15.30;99.90;;;;;;4999898;28;20046;-72
2022/05/19 02:42:08;;;;;;;2.78;2.53;;;15.30;99.90;;;;;;4999616;28;20057;-72
2022/05/19 02:44:33;;;;;;;3.45;2.60;;;15.30;99.90;;;;;;5016552;28;20038;-74
2022/05/19 02:46:59;;;;;;;2.38;1.77;;;15.40;99.90;;;;;;5016130;28;20058;-72
2022/05/19 02:49:24;;;;;;;4.80;2.05;;;15.30;99.90;;;;;;5016593;28;20061;-71
2022/05/19 02:51:50;;;;;;;2.75;1.70;;;15.30;99.90;;;;;;4999551;28;20061;-73
2022/05/19 02:54:21;;;;;;;2.70;2.00;;;15.40;99.90;;;;;;5016544;28;20048;-73
2022/05/19 02:56:49;;;;;;;2.33;1.98;;;15.30;99.90;;;;;;5016440;28;20057;-72
2022/05/19 02:59:15;;;;;;;2.08;1.55;;;15.30;99.90;;;;;;4983145;28;20064;-74
2022/05/19 03:01:41;;;;;;;2.47;1.98;;;15.40;99.90;;;;;;5015909;28;20533;-72
2022/05/19 03:04:07;;;;;;;8.15;3.30;;;15.30;99.90;;;;;;5016047;28;20457;-72
2022/05/19 03:06:33;;;;;;;2.90;2.45;;;15.40;99.90;;;;;;5016238;28;20421;-73
2022/05/19 03:08:58;;;;;;;2.20;1.75;;;15.40;99.90;;;;;;4999308;28;20053;-72
2022/05/19 03:11:24;;;;;;;2.22;1.42;;;15.40;99.90;;;;;;5016177;28;20132;-72
2022/05/19 03:13:49;;;;;;;1.58;1.48;;;15.40;99.90;;;;;;5016136;28;20056;-73
2022/05/19 03:16:15;;;;;;;3.25;1.55;;;15.40;99.90;;;;;;5015796;28;20056;-73
2022/05/19 03:18:41;;;;;;;3.25;2.28;;;15.40;99.90;;;;;;5015727;28;20049;-73
2022/05/19 03:21:06;;;;;;;3.03;2.25;;;15.40;99.90;;;;;;5016109;28;20133;-74
2022/05/19 03:23:32;;;;;;;2.63;2.13;;;15.40;99.90;;;;;;5016190;28;20374;-72
2022/05/19 03:25:57;;;;;;;3.63;2.08;;;15.40;99.90;;;;;;5015838;28;20050;-72
2022/05/19 03:28:23;;;;;;;1.92;1.50;;;15.40;99.90;;;;;;5015968;28;20093;-72
2022/05/19 03:30:48;;;;;;;2.50;1.63;;;15.40;99.90;;;;;;5015491;28;20480;-71
2022/05/19 03:33:14;;;;;;;2.45;2.08;;;15.40;99.90;;;;;;5015262;28;20038;-72
2022/05/19 03:35:40;;;;;;;1.80;1.60;;;15.40;99.90;;;;;;5015717;28;20131;-73
2022/05/19 03:38:06;;;;;;;3.88;2.08;;;15.40;99.90;;;;;;5015701;28;20045;-73
2022/05/19 03:40:32;;;;;;;2.25;1.25;;;15.40;99.90;;;;;;5015601;28;20041;-73
2022/05/19 03:42:58;;;;;;;2.38;2.17;;;15.50;99.90;;;;;;5015619;28;20097;-71
2022/05/19 03:45:24;;;;;;;2.00;1.35;;;15.50;99.90;;;;;;5015860;28;20202;-73
2022/05/19 03:47:50;;;;;;;2.67;1.75;;;15.50;99.90;;;;;;5015487;28;20117;-73
2022/05/19 03:50:15;;;;;;;2.90;2.20;;;15.40;99.90;;;;;;5015472;28;20070;-74
2022/05/19 03:52:42;;;;;;;3.60;2.42;;;15.50;99.90;;;;;;5015645;28;20038;-71
2022/05/19 03:55:09;;;;;;;3.42;1.55;;;15.50;99.90;;;;;;5015439;28;20064;-73
2022/05/19 03:57:35;;;;;;;2.90;1.70;;;15.50;99.90;;;;;;5016233;28;20493;-71
2022/05/19 04:00:01;;;;;;;2.83;1.60;;;15.50;99.90;;;;;;5000516;28;20050;-73
2022/05/19 04:02:27;;;;;;;2.13;1.33;;;15.50;99.90;;;;;;5015927;28;20046;-73
2022/05/19 04:04:52;;;;;;;1.73;1.63;;;15.50;99.90;;;;;;4996798;28;20096;-74
2022/05/19 04:07:18;;;;;;;3.00;2.72;;;15.50;99.90;;;;;;5014937;28;20136;-71
2022/05/19 04:09:43;;;;;;;2.70;2.00;;;15.60;99.90;;;;;;5015238;28;20054;-75
2022/05/19 04:12:09;;;;;;;2.83;1.98;;;15.60;99.90;;;;;;4997534;28;20077;-75
2022/05/19 04:14:35;;;;;;;9.75;4.00;;;15.70;99.90;;;;;;4997524;28;20057;-73
2022/05/19 04:17:00;;;;;;;2.88;2.00;;;15.70;99.90;;;;;;5014970;28;20050;-72
2022/05/19 04:19:26;;;;;;;1.98;1.73;;;15.70;99.90;;;;;;5014877;28;20189;-73
2022/05/19 04:21:51;;;;;;;2.55;1.70;;;15.80;99.90;;;;;;5014751;28;20104;-74
2022/05/19 04:24:17;;;;;;;5.85;3.53;;;15.80;99.90;;;;;;5015056;28;20049;-74
2022/05/19 04:26:42;;;;;;;2.90;2.28;;;15.80;99.90;;;;;;4996885;28;20120;-72
2022/05/19 04:29:08;;;;;;;3.25;2.28;;;15.90;99.90;;;;;;5015115;28;20060;-72
2022/05/19 04:31:34;;;;;;;3.03;2.25;;;16.00;99.90;;;;;;5015466;28;20092;-70
2022/05/19 04:33:59;;;;;;;4.03;1.58;;;16.00;99.90;;;;;;5014612;28;20056;-71
2022/05/19 04:36:25;;;;;;;3.65;2.35;;;16.10;99.90;;;;;;5015241;28;20458;-73
2022/05/19 04:38:50;;;;;;;5.57;2.78;;;16.10;99.90;;;;;;5015560;28;20046;-72
2022/05/19 04:41:16;;;;;;;7.50;3.10;;;16.20;99.90;;;;;;5014987;28;20068;-70
2022/05/19 04:43:41;;;;;;;4.80;2.90;;;16.20;99.90;;;;;;4998359;28;20096;-73
2022/05/19 04:46:07;;;;;;;2.30;2.10;;;16.30;99.90;;;;;;4997291;28;20041;-72
2022/05/19 04:48:32;;;;;;;4.25;2.25;;;16.50;99.90;;;;;;5014633;28;20046;-73
2022/05/19 04:50:59;;;;;;;5.63;2.88;;;16.60;99.90;;;;;;5015088;28;20129;-73
2022/05/19 04:53:25;;;;;;;5.20;3.58;;;16.70;99.90;;;;;;4997887;28;20064;-70
2022/05/19 04:55:53;;;;;;;7.82;2.58;;;16.90;99.90;;;;;;5014891;28;20097;-70
2022/05/19 04:58:18;;;;;;;3.65;2.17;;;17.00;99.90;;;;;;5015286;28;20049;-72
2022/05/19 05:00:47;;;;;;;2.03;1.50;;;17.10;99.90;;;;;;5014396;28;20056;-73
2022/05/19 05:03:13;;;;;;;7.15;3.33;;;17.10;99.90;;;;;;4997940;28;20418;-74
2022/05/19 05:05:38;;;;;;;2.45;2.05;;;17.10;99.90;;;;;;5014541;28;20089;-74
2022/05/19 05:08:04;;;;;;;2.38;2.17;;;17.20;99.90;;;;;;4997721;28;20049;-72
2022/05/19 05:10:30;;;;;;;8.02;4.57;;;17.30;99.90;;;;;;4989412;28;20393;-72
2022/05/19 05:12:56;;;;;;;3.70;2.20;;;17.30;99.90;;;;;;5015208;28;20050;-73
2022/05/19 05:15:21;;;;;;;6.15;2.60;;;17.50;99.90;;;;;;5014676;28;20052;-74
2022/05/19 05:17:47;;;;;;;14.85;3.08;;;17.50;99.90;;;;;;5014646;28;20339;-74
2022/05/19 05:20:14;;;;;;;3.33;2.33;;;17.60;99.90;;;;;;5014533;28;20113;-73
2022/05/19 05:22:40;;;;;;;3.22;1.75;;;17.70;99.90;;;;;;5014699;28;20500;-72
2022/05/19 05:25:12;;;;;;;4.68;2.28;;;17.90;99.90;;;;;;5014191;28;20046;-73
2022/05/19 05:27:37;;;;;;;1.75;1.58;;;18.10;99.90;;;;;;4997708;28;20061;-72
2022/05/19 05:30:04;;;;;;;2.92;1.90;;;18.40;99.90;;;;;;4997500;28;20046;-73
2022/05/19 05:32:30;;;;;;;3.17;1.90;;;18.90;99.90;;;;;;5014805;28;20042;-72
2022/05/19 05:34:56;;;;;;;2.55;2.17;;;19.50;99.90;;;;;;5014519;28;20107;-72
2022/05/19 05:37:22;;;;;;;2.28;1.52;;;20.10;99.90;;;;;;4997330;28;20142;-76
2022/05/19 05:39:48;;;;;;;7.18;2.70;;;20.70;99.90;;;;;;5000659;28;20446;-74
2022/05/19 05:42:14;;;;;;;1.85;1.30;;;21.00;99.90;;;;;;5001138;28;20133;-75
2022/05/19 05:44:40;;;;;;;1.85;1.63;;;21.20;99.90;;;;;;5018167;28;20054;-72
2022/05/19 05:47:06;;;;;;;3.00;2.13;;;21.10;99.90;;;;;;5000732;28;20050;-72
2022/05/19 05:49:31;;;;;;;1.33;1.02;;;21.00;99.90;;;;;;5014979;28;20064;-74
2022/05/19 05:51:57;;;;;;;2.70;1.35;;;21.20;99.90;;;;;;5017920;28;20045;-73
2022/05/19 05:54:22;;;;;;;1.35;1.02;;;21.40;99.90;;;;;;5000372;28;20124;-74
2022/05/19 05:56:52;;;;;;;1.63;1.38;;;21.80;99.90;;;;;;5000967;28;20061;-73
2022/05/19 05:59:18;;;;;;;1.13;0.85;;;22.00;99.90;;;;;;5017350;28;20130;-72
2022/05/19 06:01:43;;;;;;;0.98;0.88;;;22.30;99.90;;;;;;5017929;28;20113;-75
2022/05/19 06:04:09;;;;;;;6.85;1.30;;;22.80;99.90;;;;;;5017948;28;20366;-71
2022/05/19 06:06:34;;;;;;;1.27;0.90;;;23.70;99.90;;;;;;5000167;28;20068;-72
2022/05/19 06:09:00;;;;;;;0.90;0.80;;;23.80;99.90;;;;;;5000079;28;20112;-70
2022/05/19 06:11:26;;;;;;;1.10;0.93;;;23.40;99.90;;;;;;5017911;28;20053;-71
2022/05/19 06:13:52;;;;;;;1.45;0.82;;;23.20;99.90;;;;;;5017474;28;20053;-72
2022/05/19 06:16:18;;;;;;;1.17;0.80;;;23.30;99.90;;;;;;5017770;28;20046;-70
2022/05/19 06:18:43;;;;;;;5.85;1.10;;;23.60;99.90;;;;;;5017642;28;20041;-70
2022/05/19 06:21:09;;;;;;;1.30;1.20;;;24.00;99.90;;;;;;5017398;28;20053;-70
2022/05/19 06:23:35;;;;;;;2.33;1.67;;;24.40;99.90;;;;;;5017332;28;20057;-72
2022/05/19 06:26:02;;;;;;;1.85;1.60;;;24.70;99.90;;;;;;5017145;28;20042;-72
2022/05/19 06:28:28;;;;;;;1.92;1.15;;;24.50;99.90;;;;;;5017093;28;20069;-72
2022/05/19 06:30:54;;;;;;;1.80;1.10;;;24.00;99.90;;;;;;5017338;28;20439;-71
2022/05/19 06:33:22;;;;;;;3.65;2.22;;;23.50;99.90;;;;;;5017278;28;20053;-71
2022/05/19 06:35:48;;;;;;;1.08;0.90;;;23.20;99.90;;;;;;5016865;28;20057;-70
2022/05/19 06:38:14;;;;;;;1.60;1.27;;;23.20;99.90;;;;;;5016818;28;20049;-72
2022/05/19 06:40:40;;;;;;;1.42;1.33;;;23.40;99.90;;;;;;5016848;28;20081;-72
2022/05/19 06:43:16;;;;;;;1.33;1.15;;;23.50;99.90;;;;;;4999718;28;20363;-72
2022/05/19 06:45:45;;;;;;;1.33;1.00;;;23.50;99.90;;;;;;4999787;28;20050;-71
2022/05/19 06:48:11;;;;;;;1.55;1.00;;;23.60;99.90;;;;;;5000111;28;20054;-73
2022/05/19 06:50:38;;;;;;;2.03;1.20;;;23.50;99.90;;;;;;4998391;28;20088;-73
2022/05/19 06:53:03;;;;;;;2.83;1.42;;;23.60;99.90;;;;;;5016690;28;20057;-70
2022/05/19 06:55:35;;;;;;;0.88;0.57;;;23.50;99.90;;;;;;5016698;28;20033;-71
2022/05/19 06:58:01;;;;;;;1.42;0.85;;;23.20;99.90;;;;;;5017082;28;20354;-71
2022/05/19 07:00:28;;;;;;;1.50;0.70;;;22.90;99.90;;;;;;5016691;28;20042;-70
2022/05/19 07:02:58;;;;;;;1.38;1.05;;;22.70;99.90;;;;;;5016639;28;20366;-71
2022/05/19 07:05:28;;;;;;;1.15;0.98;;;22.40;99.90;;;;;;5016068;28;20050;-71
2022/05/19 07:07:54;;;;;;;1.52;1.10;;;22.20;99.90;;;;;;5016765;28;20139;-70
2022/05/19 07:10:22;;;;;;;1.67;1.15;;;21.90;99.90;;;;;;5016605;28;20046;-71
2022/05/19 07:12:48;;;;;;;1.42;0.85;;;21.70;99.90;;;;;;5016715;28;20409;-71
2022/05/19 07:15:15;;;;;;;2.15;1.20;;;21.40;99.90;;;;;;5016737;28;20046;-72
2022/05/19 07:17:41;;;;;;;2.45;1.70;;;21.30;99.90;;;;;;5016220;28;20041;-72
2022/05/19 07:22:52;;;;;;;1.25;1.15;;;20.80;99.90;;;;;;5016629;28;20400;-75
2022/05/19 07:25:18;;;;;;;0.75;0.70;;;20.80;99.90;;;;;;5016121;28;20089;-70
2022/05/19 07:27:44;;;;;;;1.45;1.10;;;20.70;99.90;;;;;;5016317;28;20060;-71
2022/05/19 07:30:11;;;;;;;1.58;1.27;;;20.70;99.90;;;;;;5016008;28;20446;-71
2022/05/19 07:32:37;;;;;;;3.65;2.28;;;20.60;99.90;;;;;;4998718;28;20052;-71
2022/05/19 07:35:05;;;;;;;1.40;0.80;;;20.50;99.90;;;;;;4998798;28;20096;-71
2022/05/19 07:37:31;;;;;;;1.55;1.25;;;20.30;99.90;;;;;;4982553;28;20141;-72
2022/05/19 07:39:56;;;;;;;2.63;1.02;;;20.40;99.90;;;;;;5016146;28;20125;-71
2022/05/19 07:42:23;;;;;;;0.50;0.50;;;20.30;99.90;;;;;;5016169;28;20048;-72
2022/05/19 07:44:49;;;;;;;2.72;2.53;;;20.30;99.90;;;;;;5015822;28;20050;-71
2022/05/19 07:47:15;;;;;;;1.02;0.93;;;20.20;99.90;;;;;;5015753;28;20107;-71
2022/05/19 07:49:41;;;;;;;4.40;1.67;;;20.30;99.90;;;;;;5015364;28;20465;-72
2022/05/19 07:52:07;;;;;;;0.93;0.68;;;20.30;99.90;;;;;;5015383;28;20085;-72
2022/05/19 07:54:33;;;;;;;1.60;1.20;;;20.20;99.90;;;;;;5015409;28;20081;-72
2022/05/19 07:56:59;;;;;;;4.65;1.20;;;20.20;99.90;;;;;;5015671;28;20064;-71
2022/05/19 07:59:26;;;;;;;2.70;1.77;;;20.20;99.90;;;;;;5015629;28;20038;-71
2022/05/19 08:01:52;;;;;;;4.30;2.05;;;20.20;99.90;;;;;;5015313;28;20053;-70
2022/05/19 08:04:20;;;;;;;1.42;1.05;;;20.00;99.90;;;;;;5015622;28;20511;-70
2022/05/19 08:06:46;;;;;;;1.25;0.80;;;19.90;99.90;;;;;;5015827;28;20049;-71
2022/05/19 08:11:57;;;;;;;0.73;0.70;;;19.70;99.90;;;;;;4998025;28;20066;-70
2022/05/19 08:17:08;;;;;;;2.60;2.40;;;19.80;99.90;;;;;;5015268;28;20092;-71
2022/05/19 08:19:34;;;;;;;1.40;1.30;;;19.80;99.90;;;;;;4997692;28;20046;-73
2022/05/19 08:22:00;;;;;;;0.65;0.60;;;19.90;99.90;;;;;;4997998;28;20099;-71
2022/05/19 08:24:26;;;;;;;1.10;1.00;;;20.10;99.90;;;;;;5015206;28;20344;-71
2022/05/19 08:26:52;;;;;;;3.72;1.17;;;20.20;99.90;;;;;;5015227;28;20053;-70
2022/05/19 08:29:19;;;;;;;2.35;1.45;;;20.20;99.90;;;;;;5015329;28;20048;-71
2022/05/19 08:31:45;;;;;;;1.20;0.98;;;20.20;99.90;;;;;;5015501;28;20060;-71
2022/05/19 08:34:11;;;;;;;1.02;0.93;;;20.20;99.90;;;;;;4998147;28;20038;-71
2022/05/19 08:36:37;;;;;;;4.22;2.90;;;20.20;99.90;;;;;;4995812;28;20109;-71
2022/05/19 08:39:03;;;;;;;2.55;1.33;;;20.20;99.90;;;;;;4995347;28;20482;-70
2022/05/19 08:41:36;;;;;;;1.98;0.95;;;20.20;99.90;;;;;;4995275;28;20526;-70
2022/05/19 08:44:11;;;;;;;1.45;1.10;;;20.30;99.90;;;;;;4995631;28;20411;-71
2022/05/19 08:46:41;;;;;;;0.90;0.63;;;20.40;99.90;;;;;;4995689;28;20359;-71
2022/05/19 08:49:34;;;;;;;1.10;1.00;;;20.40;99.90;;;;;;4996844;28;20069;-70
2022/05/19 08:52:09;;;;;;;1.88;1.30;;;20.60;99.90;;;;;;4998005;28;20057;-74
2022/05/19 08:54:38;;;;;;;1.55;1.10;;;20.70;99.90;;;;;;5014960;28;20196;-72
2022/05/19 08:57:25;;;;;;;1.52;0.88;;;20.80;99.90;;;;;;4997919;28;20042;-72
2022/05/19 09:00:02;;;;;;;3.33;0.60;;;20.80;99.90;;;;;;4997195;28;20107;-71
2022/05/19 09:02:56;;;;;;;0.82;0.73;;;20.80;99.90;;;;;;5014799;28;20046;-71
2022/05/19 09:05:42;;;;;;;4.45;2.10;;;21.10;99.90;;;;;;5014548;28;20041;-71
2022/05/19 09:08:35;;;;;;;1.38;1.27;;;21.40;99.90;;;;;;4974329;28;20046;-71
2022/05/19 09:11:12;;;;;;;2.90;1.40;;;21.60;99.90;;;;;;4998112;28;20045;-71
2022/05/19 09:13:55;;;;;;;2.30;0.75;;;22.00;99.90;;;;;;5017669;28;20053;-72
2022/05/19 09:16:42;;;;;;;1.05;0.95;;;22.20;99.90;;;;;;5001149;28;20065;-70
2022/05/19 09:19:23;;;;;;;1.67;1.02;;;22.30;99.90;;;;;;5018940;28;20054;-71
2022/05/19 09:22:04;;;;;;;0.43;0.43;;;22.40;99.90;;;;;;5001627;28;20053;-72
2022/05/19 09:24:29;;;;;;;1.55;1.40;;;22.50;99.90;;;;;;5018272;28;20046;-72
2022/05/19 09:26:57;;;;;;;1.35;0.95;;;22.60;99.90;;;;;;5018540;28;20443;-71
2022/05/19 09:29:51;;;;;;;1.08;0.85;;;22.90;99.90;;;;;;5018384;28;20042;-71
2022/05/19 09:32:24;;;;;;;2.17;0.98;;;23.10;99.90;;;;;;5018001;28;20042;-72
2022/05/19 09:34:51;;;;;;;;;;;23.20;99.90;;;;;;5001453;28;20121;-71
2022/05/19 09:37:40;;;;;;;0.60;0.60;;;23.20;99.90;;;;;;5018459;28;19922;-70
2022/05/19 09:40:12;;;;;;;0.50;0.50;;;23.30;99.90;;;;;;4998536;28;20077;-72
2022/05/19 09:42:49;;;;;;;0.98;0.80;;;23.40;99.90;;;;;;4932474;28;20085;-73
2022/05/19 09:45:15;;;;;;;1.88;0.95;;;23.60;99.90;;;;;;4998612;28;20382;-70
2022/05/19 09:47:45;;;;;;;0.85;0.80;;;23.70;99.90;;;;;;4980849;28;20050;-72
2022/05/19 09:50:16;;;;;;;1.55;0.95;;;23.80;99.90;;;;;;4979348;28;20081;-72
2022/05/19 09:52:43;;;;;;;1.38;0.88;;;23.90;99.90;;;;;;4998572;28;20358;-71
2022/05/19 09:55:11;;;;;;;1.60;0.90;;;24.30;99.90;;;;;;4998187;28;20050;-72
2022/05/19 09:57:43;;;;;;;1.05;0.75;;;24.30;99.90;;;;;;4998308;28;20046;-71
2022/05/19 10:00:26;;;;;;;0.60;0.60;;;24.20;99.90;;;;;;4981562;28;20061;-71
2022/05/19 10:02:56;;;;;;;1.00;0.90;;;23.80;99.90;;;;;;4996830;28;20346;-72
2022/05/19 10:05:37;;;;;;;1.08;0.68;;;23.80;99.90;;;;;;4998114;28;20050;-73
2022/05/19 10:08:14;;;;;;;3.30;0.85;;;23.80;99.90;;;;;;4980927;28;20053;-74
2022/05/19 10:10:48;;;;;;;0.50;0.40;;;23.90;99.90;;;;;;4990936;28;20063;-72
2022/05/19 10:13:16;;;;;;;2.40;0.50;;;24.00;99.90;;;;;;4997802;28;20046;-71
2022/05/19 10:15:54;;;;;;;1.52;1.42;;;24.30;99.90;;;;;;4995060;28;20058;-71
2022/05/19 10:18:51;;;;;;;0.98;0.88;;;24.50;99.90;;;;;;4981572;28;20120;-71
2022/05/19 10:21:36;;;;;;;1.60;0.75;;;24.40;99.90;;;;;;4997949;28;20054;-73
2022/05/19 10:24:19;;;;;;;1.42;1.17;;;24.60;99.90;;;;;;4996494;28;20054;-71
2022/05/19 10:33:04;;;;;;;3.85;1.60;;;24.60;99.90;;;;;;4997865;28;20058;-72
2022/05/19 10:35:44;;;;;;;0.38;0.38;;;24.70;99.90;;;;;;4980902;28;20082;-73
2022/05/19 10:38:41;;;;;;;1.00;0.90;;;24.80;99.90;;;;;;5002979;28;21126;-72
2022/05/19 10:41:18;;;;;;;1.52;0.68;;;24.60;99.90;;;;;;5017112;28;20050;-72
2022/05/19 10:44:26;;;;;;;2.40;0.80;;;24.40;99.90;;;;;;4999850;28;20046;-72
2022/05/19 10:47:21;;;;;;;0.35;0.35;;;24.30;99.90;;;;;;5022652;28;20058;-71
2022/05/19 10:50:17;;;;;;;0.30;0.30;;;24.40;99.90;;;;;;5036684;28;20536;-71
2022/05/19 10:52:58;;;;;;;1.48;1.38;;;24.40;99.90;;;;;;5036303;28;20060;-71
2022/05/19 10:55:41;;;;;;;1.52;0.75;;;24.60;99.90;;;;;;5019166;28;20053;-72
2022/05/19 10:58:47;;;;;;;1.08;0.90;;;24.80;99.90;;;;;;5036785;28;20464;-74
2022/05/19 11:01:37;;;;;;;1.90;1.02;;;24.80;99.90;;;;;;5018688;28;20441;-72
2022/05/19 11:04:20;;;;;;;0.70;0.70;;;25.10;99.90;;;;;;5036385;28;20047;-71
2022/05/19 11:07:04;;;;;;;0.30;0.30;;;25.00;99.90;;;;;;5036264;28;20464;-72
2022/05/19 11:09:44;;;;;;;1.92;1.25;;;25.30;99.90;;;;;;5036066;28;20060;-71
2022/05/19 11:12:52;;;;;;;1.27;1.15;;;25.30;99.90;;;;;;5019735;28;20091;-73
2022/05/19 11:15:30;;;;;;;1.63;0.98;;;25.30;99.90;;;;;;5011049;28;20046;-72
2022/05/19 11:18:03;;;;;;;1.75;1.23;;;25.10;99.90;;;;;;4999019;28;20046;-72
2022/05/19 11:20:31;;;;;;;;;;;25.10;99.90;;;;;;5016665;28;20124;-72
2022/05/19 11:23:36;;;;;;;1.50;1.23;;;25.40;99.90;;;;;;4999282;28;20276;-71
2022/05/19 11:26:29;;;;;;;0.57;0.57;;;25.30;99.90;;;;;;4995339;28;20054;-72
2022/05/19 11:29:26;;;;;;;1.23;0.80;;;25.40;99.90;;;;;;5016156;28;20053;-70
2022/05/19 11:32:12;;;;;;;2.17;1.13;;;25.60;99.90;;;;;;5014986;28;20046;-71
2022/05/19 11:34:51;;;;;;;1.52;1.10;;;25.80;99.90;;;;;;5016444;28;20045;-72
2022/05/19 11:37:40;;;;;;;2.50;2.17;;;25.80;99.90;;;;;;4998889;28;20042;-74
2022/05/19 11:40:23;;;;;;;0.55;0.55;;;26.40;99.90;;;;;;4979594;28;20086;-71
2022/05/19 11:43:00;;;;;;;1.95;1.00;;;26.90;99.90;;;;;;4996160;28;20418;-71
2022/05/19 11:45:32;;;;;;;1.98;0.80;;;26.90;99.90;;;;;;4979248;28;20042;-72
2022/05/19 11:57:24;;;;;;;1.13;0.85;;;27.10;99.90;;;;;;4995892;28;20116;-72
2022/05/19 11:59:55;;;;;;;1.95;1.35;;;27.20;99.90;;;;;;4978518;28;20409;-71
2022/05/19 12:02:26;;;;;;;1.63;0.63;;;27.20;99.90;;;;;;4996232;28;20344;-72
2022/05/19 12:04:59;;;;;;;0.60;0.40;;;27.30;99.90;;;;;;4995798;28;20053;-71
2022/05/19 12:07:40;;;;;;;;;;;27.30;99.90;;;;;;4996257;28;20305;-72
2022/05/19 12:10:06;;;;;;;1.48;1.00;;;27.40;99.90;;;;;;4996042;28;20239;-72
2022/05/19 12:12:36;;;;;;;1.55;0.90;;;27.50;99.90;;;;;;4979038;28;20049;-73
2022/05/19 12:15:21;;;;;;;0.40;0.40;;;27.60;99.90;;;;;;4995848;28;20042;-72
2022/05/19 12:17:57;;;;;;;0.73;0.55;;;27.50;99.90;;;;;;4995766;28;20061;-71
2022/05/19 12:20:38;;;;;;;0.95;0.80;;;27.40;99.90;;;;;;4978614;28;20462;-71
2022/05/19 12:23:33;;;;;;;0.40;0.40;;;27.40;99.90;;;;;;4995999;28;20050;-72
2022/05/19 12:26:07;;;;;;;0.40;0.32;;;27.30;99.90;;;;;;4995634;28;20043;-73
2022/05/19 12:28:39;;;;;;;0.43;0.43;;;27.30;99.90;;;;;;4995148;28;20046;-71
2022/05/19 12:34:02;;;;;;;0.40;0.38;;;27.30;99.50;;;;;;4995565;28;20065;-73
2022/05/19 12:36:41;;;;;;;1.05;0.75;;;27.20;99.90;;;;;;4995635;28;20084;-74
2022/05/19 12:39:11;;;;;;;0.60;0.40;;;27.20;99.90;;;;;;5008946;28;20198;-73
2022/05/19 12:41:52;;;;;;;1.55;0.63;;;27.10;99.90;;;;;;5014712;28;20053;-73
2022/05/19 12:44:38;;;;;;;0.40;0.35;;;26.90;99.90;;;;;;4997697;28;20065;-75
2022/05/19 12:47:16;;;;;;;0.47;0.45;;;26.80;99.90;;;;;;4997674;28;20077;-72
2022/05/19 12:50:08;;;;;;;2.40;0.90;;;26.60;99.90;;;;;;5019031;28;20057;-73
2022/05/19 12:53:02;;;;;;;0.22;0.22;;;26.30;99.90;;;;;;5019243;28;20065;-72
2022/05/19 12:55:36;;;;;;;0.35;0.35;;;26.10;99.90;;;;;;5019293;28;20085;-74
2022/05/19 12:58:33;;;;;;;0.95;0.50;;;26.00;99.90;;;;;;5001668;28;20057;-73
2022/05/19 13:01:08;;;;;;;0.20;0.20;;;25.90;99.90;;;;;;5018832;28;20550;-72
2022/05/19 13:03:37;;;;;;;0.20;0.20;;;25.80;99.90;;;;;;5001726;28;20045;-71
2022/05/19 13:06:05;;;;;;;0.55;0.32;;;25.70;99.90;;;;;;5018553;28;20516;-73
2022/05/19 13:08:35;;;;;;;0.80;0.50;;;25.60;99.90;;;;;;5019149;28;20409;-71
2022/05/19 13:11:07;;;;;;;0.55;0.43;;;25.40;99.90;;;;;;5001749;28;20141;-73
2022/05/19 13:13:41;;;;;;;10.87;0.70;;;25.20;99.90;;;;;;5018641;28;20060;-71
2022/05/19 13:16:19;;;;;;;0.98;0.70;;;25.00;99.90;;;;;;5019014;28;20277;-72
2022/05/19 13:18:54;;;;;;;1.60;1.45;;;24.80;99.90;;;;;;5016904;28;20500;-72
2022/05/19 13:21:31;;;;;;;1.25;0.98;;;24.40;99.90;;;;;;5017774;28;20041;-71
2022/05/19 13:24:02;;;;;;;0.45;0.45;;;23.30;99.90;;;;;;5001092;28;20048;-73
2022/05/19 13:26:31;;;;;;;1.17;0.60;;;22.70;99.90;;;;;;5017960;28;20545;-72
2022/05/19 13:32:07;;;;;;;0.30;0.30;;;21.80;99.90;;;;;;4997553;28;20051;-70
2022/05/19 13:34:51;;;;;;;0.20;0.20;;;21.40;99.90;;;;;;4998621;28;20047;-71
2022/05/19 13:37:29;;;;;;;0.57;0.57;;;21.10;99.90;;;;;;4998409;28;20057;-70
2022/05/19 13:40:27;;;;;;;0.20;0.20;;;20.60;99.90;;;;;;4985728;28;20058;-70